Homer, NY (13077)

3:13 PM EDT on August 28, 2015 (GMT -0400)
cortland | | Change Station
CLOSE
Current Station
Personal Weather Station
Location: Cortland, NY
Elevation: 1148 ft
Nearby Weather Stations

Elev 1148 ft 42.65 °N, 76.12 °W | Updated 6 minutes ago

Mostly Cloudy
Mostly Cloudy
71.0 °F
Feels Like 76 °F
N
0.0
Wind Variable Wind from NE
Gusts 3.0 mph

Today
High -- | Low -- °F
--% Chance of Precip.
Yesterday
High -- | Low -- °F
Precip. -- in
6:25 AM 7:46 PM
Waxing Gibbous, 99% visible
Pressure 30.22 in
Visibility 10.0 miles
Clouds Scattered Clouds 4300 ft
Overcast 5000 ft
Heat Index 76 °F
Dew Point 54 °F
Humidity 56%
Rainfall 0.00 in
Snow Depth Not available.
UV 2 out of 12
Pollen 9.00 out of 12
Air Quality Not available.
Flu Activity Not available.
METAR KN03 281855Z AUTO 27004KT 10SM SCT043 OVC050 22/12 A3022 RMK AO2
Pressure 30.22 in
Visibility 10.0 miles
Clouds Scattered Clouds 4300 ft
Overcast 5000 ft
Heat Index 76 °F
Dew Point 54 °F
Humidity 56%
Rainfall 0.00 in
Snow Depth Not available.
UV 2 out of 12
Pollen 9.00 out of 12
Air Quality Not available.
Flu Activity Not available.
METAR KN03 281855Z AUTO 27004KT 10SM SCT043 OVC050 22/12 A3022 RMK AO2

10-Day Weather Forecast

×

Almanac

Astronomy

Aug. 28, 2015 Rise Set
Actual Time
Civil Twilight
Nautical Twilight
Astronomical Twilight
Moon
Length of Visible Light
Length of Day
Tomorrow will be .
, % of the Moon is Illuminated

Today's Extremes

State Highs State Lows

Community

WunderPhotos

Upload Photos

1,850,460 photos uploaded!

WunderBlogs® & News

Nearby

Air Quality

  Air Quality AQ Index Pollutant
Not available.

Snow Depth

Station Depth Elevation

Earthquake Activity

City Distance Mag. Time & Date
Minimum magnitude displayed is 2.5.

Coastal Water Temperatures

Place Temperature

Stations

Nearby Weather Stations

Station Location Temp. Windchill Dew Point Humidity Wind Precip. Elev Updated Type